Time;durP1;ratioP1;P1;durP2;ratioP2;P2;SDS_P1;SDS_P2;PMS_P1;PMS_P2;Temp;Humidity;BMP_temperature;BMP_pressure;BME280_temperature;BME280_humidity;BME280_pressure;Samples;Min_cycle;Max_cycle;Signal;HPM_P1;HPM_P2
2023/03/27 00:01:51;;;;;;;;;;;;;;;9.06;100.00;98378.19;5085625;28;19927;-77
2023/03/27 00:04:18;;;;;;;;;;;;;;;9.04;100.00;98374.88;5084797;28;19920;-76
2023/03/27 00:06:44;;;;;;;;;;;;;;;9.03;100.00;98379.31;5066704;28;20003;-77
2023/03/27 00:09:10;;;;;;;;;;;;;;;8.95;100.00;98391.66;5067892;28;20379;-78
2023/03/27 00:11:35;;;;;;;;;;;;;;;8.98;100.00;98388.69;5083644;28;20011;-78
2023/03/27 00:14:01;;;;;;;;;;;;;;;9.02;100.00;98392.63;5085315;28;19920;-79
2023/03/27 00:16:26;;;;;;;;;;;;;;;9.06;100.00;98388.72;5080343;28;20003;-78
2023/03/27 00:18:53;;;;;;;;;;;;;;;9.04;100.00;98390.69;5083629;28;20294;-78
2023/03/27 00:21:21;;;;;;;;;;;;;;;9.05;100.00;98392.34;5085437;28;19920;-79
2023/03/27 00:23:46;;;;;;;;;;;;;;;9.04;100.00;98393.31;5084203;28;19920;-79
2023/03/27 00:26:13;;;;;;;;;;;;;;;8.98;100.00;98386.88;5066444;28;20455;-79
2023/03/27 00:28:38;;;;;;;;;;;;;;;8.80;100.00;98382.72;5085317;28;19930;-78
2023/03/27 00:31:08;;;;;;;;;;;;;;;8.73;100.00;98387.78;5083781;28;20039;-79
2023/03/27 00:33:33;;;;;;;;;;;;;;;8.55;100.00;98387.06;5085903;28;19920;-79
2023/03/27 00:35:58;;;;;;;;;;;;;;;8.59;100.00;98391.88;5084907;28;20031;-79
2023/03/27 00:38:24;;;;;;;;;;;;;;;8.42;100.00;98389.31;5065028;28;19921;-79
2023/03/27 00:40:52;;;;;;;;;;;;;;;8.20;100.00;98386.22;5087806;28;19974;-79
2023/03/27 00:43:25;;;;;;;;;;;;;;;8.11;100.00;98391.59;5083383;28;19924;-79
2023/03/27 00:45:54;;;;;;;;;;;;;;;7.91;100.00;98393.59;5067098;28;20012;-79
2023/03/27 00:48:19;;;;;;;;;;;;;;;7.87;100.00;98404.56;5083798;28;20002;-79
2023/03/27 00:50:46;;;;;;;;;;;;;;;7.61;100.00;98405.34;5085109;28;19967;-80
2023/03/27 00:53:14;;;;;;;;;;;;;;;7.76;100.00;98403.84;5082474;28;19920;-78
2023/03/27 00:55:42;;;;;;;;;;;;;;;7.84;100.00;98397.81;5063328;28;19943;-78
2023/03/27 00:58:16;;;;;;;;;;;;;;;7.94;100.00;98406.44;5080070;28;19963;-77
2023/03/27 01:00:41;;;;;;;;;;;;;;;8.02;100.00;98408.25;5063172;28;19924;-77
2023/03/27 01:03:07;;;;;;;;;;;;;;;8.01;100.00;98411.91;5063126;28;20525;-76
2023/03/27 01:05:34;;;;;;;;;;;;;;;8.00;100.00;98418.13;5085153;28;19988;-77
2023/03/27 01:08:00;;;;;;;;;;;;;;;8.04;100.00;98416.81;5082741;28;19921;-77
2023/03/27 01:10:32;;;;;;;;;;;;;;;7.96;100.00;98435.16;5086572;28;20011;-78
2023/03/27 01:13:03;;;;;;;;;;;;;;;7.86;100.00;98431.81;5062887;28;19920;-79
2023/03/27 01:15:39;;;;;;;;;;;;;;;7.92;100.00;98428.56;5071822;28;20342;-80
2023/03/27 01:18:21;;;;;;;;;;;;;;;7.92;100.00;98433.81;5083155;28;19962;-80
2023/03/27 01:21:05;;;;;;;;;;;;;;;7.98;100.00;98425.31;5064249;28;19920;-80
2023/03/27 01:23:43;;;;;;;;;;;;;;;7.97;100.00;98431.56;5083275;28;19920;-79
2023/03/27 01:26:18;;;;;;;;;;;;;;;8.06;100.00;98430.66;5066562;28;20333;-80
2023/03/27 01:28:57;;;;;;;;;;;;;;;7.97;100.00;98435.00;5083391;28;20391;-80
2023/03/27 01:31:32;;;;;;;;;;;;;;;7.97;100.00;98444.69;5068041;28;19924;-80
2023/03/27 01:33:57;;;;;;;;;;;;;;;7.85;100.00;98445.91;5073786;28;19973;-80
2023/03/27 01:36:31;;;;;;;;;;;;;;;7.59;100.00;98446.69;5067639;28;20330;-79
2023/03/27 01:39:15;;;;;;;;;;;;;;;7.55;100.00;98453.19;5082279;28;19920;-78
2023/03/27 01:41:44;;;;;;;;;;;;;;;7.24;100.00;98451.94;5064149;28;20476;-78
2023/03/27 01:44:18;;;;;;;;;;;;;;;7.14;100.00;98448.53;5085266;28;19926;-77
2023/03/27 01:46:48;;;;;;;;;;;;;;;7.15;100.00;98444.94;5083288;28;20027;-77
2023/03/27 01:49:18;;;;;;;;;;;;;;;7.12;100.00;98447.88;5086331;28;19920;-78
2023/03/27 01:51:49;;;;;;;;;;;;;;;6.99;100.00;98454.28;5065408;28;19935;-78
2023/03/27 01:54:22;;;;;;;;;;;;;;;6.80;100.00;98457.00;5066447;28;20073;-77
2023/03/27 01:57:03;;;;;;;;;;;;;;;6.71;100.00;98468.38;5081566;28;19925;-77
2023/03/27 01:59:32;;;;;;;;;;;;;;;6.50;100.00;98459.91;5067581;28;19920;-77
2023/03/27 02:02:00;;;;;;;;;;;;;;;6.42;100.00;98457.97;5081586;28;19931;-78
2023/03/27 02:04:38;;;;;;;;;;;;;;;6.54;100.00;98461.25;5062562;28;19928;-78
2023/03/27 02:07:07;;;;;;;;;;;;;;;6.57;100.00;98458.34;5079160;28;19924;-78
2023/03/27 02:09:53;;;;;;;;;;;;;;;6.59;100.00;98453.81;5065530;28;20011;-80
2023/03/27 02:12:21;;;;;;;;;;;;;;;6.69;100.00;98459.00;5063468;28;19921;-78
2023/03/27 02:14:53;;;;;;;;;;;;;;;6.62;100.00;98464.00;5067656;28;19935;-79
2023/03/27 02:17:20;;;;;;;;;;;;;;;6.71;100.00;98457.91;5068779;28;19939;-79
2023/03/27 02:20:15;;;;;;;;;;;;;;;6.80;100.00;98462.25;5066016;28;19975;-78
2023/03/27 02:22:44;;;;;;;;;;;;;;;6.72;100.00;98470.00;5085605;28;19920;-80
2023/03/27 02:25:20;;;;;;;;;;;;;;;6.71;100.00;98475.41;5070854;28;20401;-79
2023/03/27 02:27:47;;;;;;;;;;;;;;;6.59;100.00;98474.78;5069741;28;19920;-80
2023/03/27 02:30:16;;;;;;;;;;;;;;;6.54;100.00;98482.22;5051004;28;19920;-79
2023/03/27 02:32:42;;;;;;;;;;;;;;;6.57;100.00;98468.84;5069616;28;19926;-80
2023/03/27 02:35:11;;;;;;;;;;;;;;;6.40;100.00;98459.13;5063674;28;19929;-80
2023/03/27 02:37:48;;;;;;;;;;;;;;;6.44;100.00;98481.44;5068441;28;19927;-79
2023/03/27 02:40:22;;;;;;;;;;;;;;;6.36;100.00;98479.53;5089200;28;20006;-80
2023/03/27 02:42:59;;;;;;;;;;;;;;;6.39;100.00;98483.66;5069150;28;19959;-80
2023/03/27 02:45:28;;;;;;;;;;;;;;;6.16;100.00;98494.47;5080138;28;19921;-78
2023/03/27 02:48:00;;;;;;;;;;;;;;;6.25;100.00;98491.97;5088483;28;19923;-78
2023/03/27 02:50:42;;;;;;;;;;;;;;;6.29;100.00;98502.03;5068461;28;20007;-78
2023/03/27 02:53:10;;;;;;;;;;;;;;;6.24;100.00;98511.28;5065903;28;19916;-78
2023/03/27 02:55:41;;;;;;;;;;;;;;;6.44;100.00;98525.97;5086052;28;19920;-77
2023/03/27 02:58:18;;;;;;;;;;;;;;;6.41;100.00;98528.91;5066394;28;19921;-79
2023/03/27 03:00:57;;;;;;;;;;;;;;;6.50;100.00;98539.34;5070193;28;19927;-79
2023/03/27 03:03:53;;;;;;;;;;;;;;;6.49;100.00;98534.25;5087408;28;20484;-79
2023/03/27 03:06:45;;;;;;;;;;;;;;;6.42;100.00;98530.56;5069221;28;19920;-78
2023/03/27 03:09:13;;;;;;;;;;;;;;;6.30;100.00;98536.94;5086032;28;19927;-78
2023/03/27 03:11:45;;;;;;;;;;;;;;;6.35;100.00;98534.72;5068271;28;19920;-78
2023/03/27 03:14:11;;;;;;;;;;;;;;;6.43;100.00;98545.28;5068228;28;19920;-79
2023/03/27 03:16:36;;;;;;;;;;;;;;;6.42;100.00;98536.59;5086535;28;20049;-83
2023/03/27 03:19:01;;;;;;;;;;;;;;;6.27;100.00;98526.72;5085002;28;19931;-81
2023/03/27 03:21:27;;;;;;;;;;;;;;;5.92;100.00;98528.13;5053419;28;20398;-79
2023/03/27 03:23:53;;;;;;;;;;;;;;;6.00;100.00;98524.81;5084311;28;20348;-78
2023/03/27 03:26:20;;;;;;;;;;;;;;;6.08;100.00;98530.19;5086270;28;19943;-79
2023/03/27 03:28:46;;;;;;;;;;;;;;;6.15;100.00;98528.66;5084385;28;19920;-78
2023/03/27 03:31:12;;;;;;;;;;;;;;;6.24;100.00;98532.25;5068309;28;19927;-79
2023/03/27 03:33:38;;;;;;;;;;;;;;;6.14;100.00;98533.06;5065633;28;20351;-78
2023/03/27 03:36:04;;;;;;;;;;;;;;;6.15;100.00;98534.72;5086302;28;19928;-77
2023/03/27 03:38:34;;;;;;;;;;;;;;;6.26;100.00;98546.00;5065143;28;19926;-78
2023/03/27 03:41:01;;;;;;;;;;;;;;;6.33;100.00;98547.94;5067978;28;19931;-78
2023/03/27 03:43:29;;;;;;;;;;;;;;;6.38;100.00;98550.97;5064531;28;19929;-80
2023/03/27 03:45:55;;;;;;;;;;;;;;;6.32;100.00;98558.56;5062571;28;19920;-80
2023/03/27 03:48:20;;;;;;;;;;;;;;;6.09;100.00;98571.94;5065844;28;20289;-80
2023/03/27 03:50:46;;;;;;;;;;;;;;;6.05;100.00;98565.34;5087506;28;19974;-80
2023/03/27 03:53:16;;;;;;;;;;;;;;;6.06;100.00;98559.16;5065626;28;19960;-79
2023/03/27 03:55:42;;;;;;;;;;;;;;;5.96;100.00;98558.31;5067845;28;20340;-79
2023/03/27 03:58:08;;;;;;;;;;;;;;;6.03;100.00;98562.03;5066318;28;19974;-79
2023/03/27 04:00:37;;;;;;;;;;;;;;;5.95;100.00;98569.72;5068428;28;20058;-79
2023/03/27 04:03:05;;;;;;;;;;;;;;;6.02;100.00;98563.00;5064525;28;20011;-77
2023/03/27 04:05:34;;;;;;;;;;;;;;;6.04;100.00;98570.72;5068990;28;20043;-78
2023/03/27 04:07:59;;;;;;;;;;;;;;;5.99;100.00;98568.50;5082728;28;19928;-77
2023/03/27 04:10:46;;;;;;;;;;;;;;;6.01;100.00;98574.41;5065230;28;19977;-78
2023/03/27 04:13:20;;;;;;;;;;;;;;;6.12;100.00;98581.34;5068061;28;20027;-77
2023/03/27 04:15:54;;;;;;;;;;;;;;;6.10;100.00;98584.09;5064981;28;19921;-78
2023/03/27 04:18:29;;;;;;;;;;;;;;;6.08;100.00;98583.38;5067190;28;20305;-75
2023/03/27 04:20:57;;;;;;;;;;;;;;;5.95;100.00;98588.06;5064229;28;19920;-77
2023/03/27 04:23:29;;;;;;;;;;;;;;;5.81;100.00;98593.69;5064114;28;19947;-77
2023/03/27 04:26:00;;;;;;;;;;;;;;;5.59;100.00;98593.94;5065460;28;19973;-79
2023/03/27 04:28:38;;;;;;;;;;;;;;;5.42;100.00;98607.66;5067529;28;19931;-78
2023/03/27 04:31:23;;;;;;;;;;;;;;;5.46;100.00;98620.34;5067911;28;19927;-78
2023/03/27 04:34:07;;;;;;;;;;;;;;;5.35;100.00;98618.66;5083519;28;20043;-77
2023/03/27 04:36:51;;;;;;;;;;;;;;;5.18;100.00;98611.44;5065137;28;20489;-79
2023/03/27 04:39:21;;;;;;;;;;;;;;;4.95;100.00;98620.38;5066817;28;19920;-78
2023/03/27 04:41:49;;;;;;;;;;;;;;;4.92;100.00;98620.66;5064561;28;19920;-77
2023/03/27 04:44:18;;;;;;;;;;;;;;;4.72;100.00;98621.50;5083155;28;19920;-77
2023/03/27 04:46:47;;;;;;;;;;;;;;;4.65;100.00;98630.84;5065498;28;20015;-78
2023/03/27 04:49:13;;;;;;;;;;;;;;;4.58;100.00;98632.28;5065586;28;19943;-77
2023/03/27 04:51:59;;;;;;;;;;;;;;;4.52;100.00;98629.25;5081442;28;19940;-77
2023/03/27 04:54:30;;;;;;;;;;;;;;;4.67;100.00;98624.50;5067535;28;20377;-78
2023/03/27 04:56:56;;;;;;;;;;;;;;;4.81;100.00;98618.13;5052144;28;19920;-78
2023/03/27 04:59:21;;;;;;;;;;;;;;;4.77;100.00;98627.19;5064726;28;19920;-78
2023/03/27 05:02:07;;;;;;;;;;;;;;;4.82;100.00;98631.09;5086018;28;19940;-79
2023/03/27 05:04:49;;;;;;;;;;;;;;;4.88;100.00;98640.19;5050185;28;19934;-76
2023/03/27 05:07:18;;;;;;;;;;;;;;;4.89;100.00;98629.59;5067177;28;20378;-75
2023/03/27 05:09:44;;;;;;;;;;;;;;;4.99;100.00;98631.44;5063583;28;19928;-75
2023/03/27 05:12:10;;;;;;;;;;;;;;;5.05;100.00;98641.38;5069016;28;19927;-74
2023/03/27 05:14:47;;;;;;;;;;;;;;;5.06;100.00;98638.63;5064471;28;20268;-75
2023/03/27 05:17:27;;;;;;;;;;;;;;;5.12;100.00;98650.38;5064012;28;19965;-75
2023/03/27 05:19:53;;;;;;;;;;;;;;;5.14;100.00;98651.88;5066899;28;19924;-77
2023/03/27 05:22:18;;;;;;;;;;;;;;;5.15;100.00;98664.00;5063608;28;19936;-73
2023/03/27 05:24:50;;;;;;;;;;;;;;;5.17;100.00;98656.84;5064133;28;19928;-74
2023/03/27 05:27:16;;;;;;;;;;;;;;;5.17;100.00;98650.78;5084241;28;19966;-72
2023/03/27 05:29:45;;;;;;;;;;;;;;;5.15;100.00;98653.53;5064738;28;20014;-74
2023/03/27 05:32:11;;;;;;;;;;;;;;;4.85;100.00;98659.56;5064724;28;19920;-73
2023/03/27 05:34:45;;;;;;;;;;;;;;;4.79;100.00;98664.47;5060095;28;20287;-73
2023/03/27 05:37:15;;;;;;;;;;;;;;;4.72;100.00;98660.69;5064983;28;19985;-72
2023/03/27 05:40:00;;;;;;;;;;;;;;;4.65;100.00;98675.25;5080617;28;19985;-71
2023/03/27 05:42:25;;;;;;;;;;;;;;;4.70;100.00;98683.53;5082506;28;19924;-71
2023/03/27 05:44:51;;;;;;;;;;;;;;;4.67;100.00;98681.16;5086975;28;19920;-74
2023/03/27 05:47:19;;;;;;;;;;;;;;;4.72;100.00;98676.38;5080608;28;19920;-71
2023/03/27 05:49:44;;;;;;;;;;;;;;;4.75;100.00;98681.38;5065486;28;19928;-71
2023/03/27 05:52:11;;;;;;;;;;;;;;;4.87;100.00;98670.72;5067473;28;19916;-71
2023/03/27 05:54:36;;;;;;;;;;;;;;;4.93;100.00;98679.84;5068032;28;19927;-72
2023/03/27 05:57:06;;;;;;;;;;;;;;;4.92;100.00;98680.78;5070634;28;19947;-71
2023/03/27 05:59:32;;;;;;;;;;;;;;;4.93;100.00;98679.84;5066193;28;19916;-72
2023/03/27 06:02:10;;;;;;;;;;;;;;;4.98;100.00;98688.13;5064697;28;19924;-72
2023/03/27 06:04:44;;;;;;;;;;;;;;;5.02;100.00;98694.75;5069375;28;19993;-76
2023/03/27 06:07:15;;;;;;;;;;;;;;;5.05;100.00;98704.97;5066901;28;20375;-74
2023/03/27 06:09:42;;;;;;;;;;;;;;;5.13;100.00;98707.75;5067267;28;19988;-73
2023/03/27 06:12:25;;;;;;;;;;;;;;;5.20;100.00;98703.66;5085321;28;19962;-72
2023/03/27 06:14:59;;;;;;;;;;;;;;;5.27;100.00;98703.97;5064573;28;20260;-73
2023/03/27 06:17:32;;;;;;;;;;;;;;;5.34;100.00;98711.19;5050008;28;19925;-72
2023/03/27 06:20:09;;;;;;;;;;;;;;;5.46;100.00;98718.94;5085337;28;19920;-73
2023/03/27 06:22:37;;;;;;;;;;;;;;;5.66;100.00;98725.88;5066606;28;19963;-73
2023/03/27 06:25:04;;;;;;;;;;;;;;;5.75;100.00;98735.59;5070074;28;20384;-73
2023/03/27 06:27:30;;;;;;;;;;;;;;;5.87;100.00;98738.94;5070074;28;20418;-73
2023/03/27 06:29:56;;;;;;;;;;;;;;;5.90;100.00;98734.28;5065626;28;19920;-72
2023/03/27 06:32:21;;;;;;;;;;;;;;;6.05;100.00;98738.19;5085687;28;19927;-73
2023/03/27 06:34:50;;;;;;;;;;;;;;;6.15;100.00;98743.44;5069411;28;20026;-73
2023/03/27 06:37:35;;;;;;;;;;;;;;;6.28;100.00;98751.06;5086016;28;20002;-73
2023/03/27 06:40:08;;;;;;;;;;;;;;;6.41;100.00;98754.25;5069881;28;20234;-72
2023/03/27 06:42:36;;;;;;;;;;;;;;;6.52;100.00;98769.88;5084858;28;19926;-73
2023/03/27 06:45:21;;;;;;;;;;;;;;;6.60;100.00;98759.50;5085409;28;20001;-72
2023/03/27 06:48:05;;;;;;;;;;;;;;;6.77;100.00;98758.84;5084605;28;20706;-72
2023/03/27 06:50:37;;;;;;;;;;;;;;;6.87;100.00;98762.28;5067371;28;20030;-72
2023/03/27 06:53:03;;;;;;;;;;;;;;;6.96;100.00;98761.44;5069487;28;19927;-72
2023/03/27 06:55:41;;;;;;;;;;;;;;;7.18;100.00;98781.31;5065983;28;20026;-73
2023/03/27 06:58:07;;;;;;;;;;;;;;;7.36;100.00;98776.19;5083457;28;20030;-72
2023/03/27 07:00:34;;;;;;;;;;;;;;;7.53;100.00;98785.94;5068405;28;19928;-72
2023/03/27 07:03:19;;;;;;;;;;;;;;;7.69;100.00;98794.06;5083625;28;19924;-72
2023/03/27 07:06:07;;;;;;;;;;;;;;;7.73;100.00;98798.03;5073020;28;20380;-72
2023/03/27 07:08:43;;;;;;;;;;;;;;;7.91;100.00;98799.91;5067683;28;19920;-72
2023/03/27 07:11:08;;;;;;;;;;;;;;;8.01;100.00;98806.78;5065351;28;20382;-72
2023/03/27 07:13:39;;;;;;;;;;;;;;;8.12;100.00;98805.78;5051011;28;19924;-71
2023/03/27 07:16:12;;;;;;;;;;;;;;;8.22;100.00;98803.94;5061956;28;19931;-71
2023/03/27 07:18:38;;;;;;;;;;;;;;;8.36;100.00;98811.38;5067555;28;19924;-74
2023/03/27 07:21:03;;;;;;;;;;;;;;;8.51;100.00;98817.78;5058178;28;20375;-71
2023/03/27 07:23:29;;;;;;;;;;;;;;;8.68;100.00;98824.03;5051800;28;20399;-71
2023/03/27 07:26:00;;;;;;;;;;;;;;;8.79;100.00;98828.25;5060284;28;19927;-71
2023/03/27 07:28:51;;;;;;;;;;;;;;;8.95;100.00;98828.44;5063548;28;19923;-71
2023/03/27 07:31:17;;;;;;;;;;;;;;;9.02;100.00;98839.97;5060300;28;20295;-72
2023/03/27 07:33:43;;;;;;;;;;;;;;;9.12;100.00;98824.97;5064698;28;19924;-73
2023/03/27 07:36:10;;;;;;;;;;;;;;;9.28;100.00;98825.09;5065804;28;20360;-74
2023/03/27 07:38:41;;;;;;;;;;;;;;;9.31;100.00;98824.78;5066782;28;19917;-74
2023/03/27 07:41:17;;;;;;;;;;;;;;;9.47;100.00;98833.81;5065798;28;19920;-74
2023/03/27 07:44:08;;;;;;;;;;;;;;;9.58;100.00;98836.19;5081908;28;19924;-74
2023/03/27 07:46:44;;;;;;;;;;;;;;;9.75;100.00;98837.94;5064545;28;20435;-73
2023/03/27 07:49:10;;;;;;;;;;;;;;;9.80;100.00;98841.75;5064901;28;19965;-74
2023/03/27 07:51:38;;;;;;;;;;;;;;;9.89;100.00;98847.09;5087112;28;19930;-73
2023/03/27 07:54:04;;;;;;;;;;;;;;;10.02;100.00;98839.56;5064311;28;19931;-74
2023/03/27 07:56:34;;;;;;;;;;;;;;;10.17;100.00;98838.88;5067785;28;19977;-74
2023/03/27 07:59:26;;;;;;;;;;;;;;;10.32;96.24;98847.00;5049253;28;20011;-73
2023/03/27 08:01:54;;;;;;;;;;;;;;;10.52;97.88;98850.22;5065108;28;20244;-73
2023/03/27 08:04:23;;;;;;;;;;;;;;;10.69;96.02;98857.22;5063402;28;19920;-77
2023/03/27 08:07:05;;;;;;;;;;;;;;;10.90;100.00;98854.13;5065213;28;20402;-75
2023/03/27 08:09:32;;;;;;;;;;;;;;;11.01;100.00;98852.03;5069011;28;20011;-74
2023/03/27 08:11:58;;;;;;;;;;;;;;;11.15;100.00;98855.00;5062078;28;20019;-75
2023/03/27 08:14:25;;;;;;;;;;;;;;;11.27;100.00;98861.63;5060641;28;19924;-73
2023/03/27 08:16:52;;;;;;;;;;;;;;;11.41;100.00;98872.38;5064568;28;19929;-74
2023/03/27 08:19:24;;;;;;;;;;;;;;;11.54;100.00;98871.88;5067002;28;20258;-74
2023/03/27 08:21:53;;;;;;;;;;;;;;;11.63;100.00;98881.44;5064504;28;19928;-75
2023/03/27 08:24:18;;;;;;;;;;;;;;;11.76;100.00;98881.81;5067997;28;19926;-75
2023/03/27 08:27:04;;;;;;;;;;;;;;;11.88;100.00;98880.47;5081284;28;19920;-76
2023/03/27 08:29:34;;;;;;;;;;;;;;;12.00;100.00;98888.06;5067760;28;19974;-76
2023/03/27 08:32:00;;;;;;;;;;;;;;;12.12;100.00;98886.72;5065978;28;20339;-75
2023/03/27 08:34:26;;;;;;;;;;;;;;;12.24;100.00;98891.47;5063426;28;19920;-74
2023/03/27 08:36:53;;;;;;;;;;;;;;;12.38;100.00;98897.88;5067411;28;19960;-75
2023/03/27 08:39:21;;;;;;;;;;;;;;;12.47;100.00;98896.88;5065757;28;19943;-76
2023/03/27 08:42:01;;;;;;;;;;;;;;;12.59;95.63;98911.38;5066619;28;19924;-75
2023/03/27 08:44:32;;;;;;;;;;;;;;;12.75;96.13;98910.47;5063491;28;20451;-76
2023/03/27 08:47:03;;;;;;;;;;;;;;;12.86;88.26;98911.91;5067191;28;20002;-75
2023/03/27 08:49:35;;;;;;;;;;;;;;;13.03;86.62;98913.47;5067350;28;20030;-75
2023/03/27 08:52:18;;;;;;;;;;;;;;;13.21;85.24;98922.03;5063112;28;19917;-75
2023/03/27 08:54:52;;;;;;;;;;;;;;;13.35;83.51;98926.59;5062861;28;19921;-75
2023/03/27 08:57:23;;;;;;;;;;;;;;;13.53;81.58;98927.13;5067624;28;19930;-75
2023/03/27 08:59:55;;;;;;;;;;;;;;;13.70;77.00;98927.00;5063502;28;20302;-75
2023/03/27 09:02:27;;;;;;;;;;;;;;;13.88;76.06;98931.00;5069334;28;19927;-75
2023/03/27 09:04:59;;;;;;;;;;;;;;;14.09;70.80;98948.84;5063273;28;19920;-74
2023/03/27 09:07:40;;;;;;;;;;;;;;;14.31;63.02;98936.56;5056315;28;19974;-75
2023/03/27 09:10:43;;;;;;;;;;;;;;;14.51;58.02;98936.88;5061970;28;19922;-75
2023/03/27 09:13:44;;;;;;;;;;;;;;;14.70;48.99;98936.31;5048000;28;19924;-75
2023/03/27 09:16:14;;;;;;;;;;;;;;;14.81;48.30;98951.78;5043763;28;19966;-75
2023/03/27 09:18:43;;;;;;;;;;;;;;;14.93;49.47;98962.78;5062930;28;19916;-75
2023/03/27 09:21:20;;;;;;;;;;;;;;;15.03;47.99;98958.81;5058149;28;20219;-74
2023/03/27 09:23:46;;;;;;;;;;;;;;;15.11;46.42;98961.38;5061780;28;19920;-75
2023/03/27 09:26:43;;;;;;;;;;;;;;;15.19;44.89;98963.13;5057417;28;19944;-74
2023/03/27 09:29:36;;;;;;;;;;;;;;;15.28;42.58;98966.47;5058409;28;20041;-74
2023/03/27 09:32:15;;;;;;;;;;;;;;;15.37;43.99;98970.69;5058407;28;20402;-75
2023/03/27 09:34:40;;;;;;;;;;;;;;;15.46;42.10;98974.84;5060079;28;20015;-76
2023/03/27 09:37:13;;;;;;;;;;;;;;;15.52;40.39;98971.47;5059315;28;19921;-75
2023/03/27 09:39:42;;;;;;;;;;;;;;;15.56;37.97;98976.22;5059756;28;19921;-76
2023/03/27 09:42:28;;;;;;;;;;;;;;;15.61;39.82;98970.34;5059810;28;19932;-78
2023/03/27 09:44:55;;;;;;;;;;;;;;;15.68;38.07;98973.88;5061278;28;19928;-82
2023/03/27 09:47:30;;;;;;;;;;;;;;;15.75;38.97;98979.28;5063335;28;19920;-83
2023/03/27 09:50:14;;;;;;;;;;;;;;;15.84;35.01;98984.31;5063215;28;19925;-81
2023/03/27 09:52:53;;;;;;;;;;;;;;;15.86;33.23;98966.28;5060793;28;19924;-83
2023/03/27 09:55:54;;;;;;;;;;;;;;;15.92;33.51;98973.50;5064024;28;20155;-80
2023/03/27 09:58:30;;;;;;;;;;;;;;;15.92;34.26;98981.50;5049515;28;20393;-81
2023/03/27 10:01:08;;;;;;;;;;;;;;;15.94;34.14;98994.63;5065864;28;19916;-80
2023/03/27 10:03:39;;;;;;;;;;;;;;;15.94;32.50;98987.47;5068572;28;20262;-83
2023/03/27 10:06:07;;;;;;;;;;;;;;;15.91;33.50;98985.16;5063208;28;20024;-80
2023/03/27 10:08:49;;;;;;;;;;;;;;;15.91;35.69;99000.31;5065724;28;19925;-80
2023/03/27 10:11:22;;;;;;;;;;;;;;;15.91;34.67;99000.31;5068070;23;19981;-75
2023/03/27 10:13:53;;;;;;;;;;;;;;;15.94;35.04;99000.78;5082966;28;19946;-78
2023/03/27 10:16:23;;;;;;;;;;;;;;;16.01;35.76;99005.34;5079997;28;20376;-79
2023/03/27 10:19:03;;;;;;;;;;;;;;;16.03;34.03;99008.59;5080460;28;20384;-81
2023/03/27 10:21:38;;;;;;;;;;;;;;;16.03;33.77;99004.09;5080777;28;20016;-80
2023/03/27 10:24:06;;;;;;;;;;;;;;;16.04;33.19;98999.59;5079169;28;19928;-79
2023/03/27 10:27:05;;;;;;;;;;;;;;;16.07;31.71;98996.59;5060899;28;20372;-80
2023/03/27 10:29:36;;;;;;;;;;;;;;;16.15;30.76;99013.22;5079447;28;19927;-80
2023/03/27 10:32:04;;;;;;;;;;;;;;;16.17;29.59;99015.72;5092320;28;19926;-82
2023/03/27 10:34:50;;;;;;;;;;;;;;;16.21;30.20;99006.31;5077918;28;20395;-79
2023/03/27 10:37:47;;;;;;;;;;;;;;;16.24;29.58;99016.59;5082560;28;19924;-79
2023/03/27 10:40:38;;;;;;;;;;;;;;;16.32;29.72;99019.09;5078415;28;19956;-79
2023/03/27 10:43:11;;;;;;;;;;;;;;;16.37;30.09;99027.38;5086869;28;20372;-79
2023/03/27 10:45:55;;;;;;;;;;;;;;;16.45;29.79;99019.22;5080762;28;19966;-79
2023/03/27 10:48:29;;;;;;;;;;;;;;;16.49;28.05;99020.50;5083751;28;19962;-78
2023/03/27 10:51:01;;;;;;;;;;;;;;;16.52;28.10;99016.59;5087881;28;19920;-79
2023/03/27 10:53:50;;;;;;;;;;;;;;;16.56;27.11;99021.34;5084985;28;20256;-80
2023/03/27 10:56:22;;;;;;;;;;;;;;;16.62;27.23;99019.78;5082500;28;20058;-79
2023/03/27 10:59:00;;;;;;;;;;;;;;;16.57;26.14;99017.66;5080958;28;19935;-79
2023/03/27 11:01:33;;;;;;;;;;;;;;;16.55;27.11;99013.56;5083894;28;19917;-79
2023/03/27 11:04:02;;;;;;;;;;;;;;;16.58;28.55;99019.31;5083064;28;19927;-78
2023/03/27 11:06:34;;;;;;;;;;;;;;;16.66;28.65;99010.41;5096163;28;20300;-78
2023/03/27 11:09:16;;;;;;;;;;;;;;;16.71;28.89;99024.78;5086815;28;19931;-79
2023/03/27 11:12:08;;;;;;;;;;;;;;;16.70;28.24;99012.47;5081422;28;20672;-79
2023/03/27 11:14:41;;;;;;;;;;;;;;;16.69;28.69;99012.66;5083764;28;19927;-78
2023/03/27 11:17:14;;;;;;;;;;;;;;;16.76;29.51;99011.69;5082656;28;20029;-78
2023/03/27 11:20:36;;;;;;;;;;;;;;;16.77;29.73;99012.50;5074536;28;20006;-80
2023/03/27 11:23:30;;;;;;;;;;;;;;;16.85;28.67;99020.34;5086276;28;19928;-79
2023/03/27 11:26:22;;;;;;;;;;;;;;;16.87;27.57;99014.81;5084630;28;19924;-79
2023/03/27 11:28:53;;;;;;;;;;;;;;;16.87;28.76;99017.47;5086610;28;20260;-82
2023/03/27 11:31:26;;;;;;;;;;;;;;;16.89;29.12;99015.47;5084875;28;20034;-79
2023/03/27 11:33:58;;;;;;;;;;;;;;;16.93;29.19;99020.19;5082950;28;19920;-79
2023/03/27 11:36:38;;;;;;;;;;;;;;;16.97;28.59;99017.94;5069966;28;20451;-81
2023/03/27 11:39:35;;;;;;;;;;;;;;;17.02;29.05;99021.66;5078086;28;19924;-82
2023/03/27 11:42:09;;;;;;;;;;;;;;;17.11;28.12;99022.34;5079596;28;19928;-81
2023/03/27 11:44:34;;;;;;;;;;;;;;;17.22;28.11;99016.44;5093673;28;19970;-81
2023/03/27 11:47:26;;;;;;;;;;;;;;;17.33;27.50;99013.19;5081030;28;20395;-80
2023/03/27 11:50:06;;;;;;;;;;;;;;;17.43;26.74;99013.69;5072522;28;20442;-81
2023/03/27 11:52:38;;;;;;;;;;;;;;;17.57;26.45;99014.53;5081422;28;19924;-82
2023/03/27 11:55:07;;;;;;;;;;;;;;;17.63;25.90;99007.59;5081491;28;20027;-81
2023/03/27 11:57:56;;;;;;;;;;;;;;;17.81;27.15;99015.84;5066872;28;19925;-81
2023/03/27 12:00:36;;;;;;;;;;;;;;;17.90;26.22;98998.63;5052630;28;19925;-82
2023/03/27 12:03:10;;;;;;;;;;;;;;;18.01;25.17;99006.03;5082379;28;19920;-81
2023/03/27 12:05:37;;;;;;;;;;;;;;;18.07;25.27;99009.75;4369501;28;10001079;-80
2023/03/27 12:08:13;;;;;;;;;;;;;;;18.13;24.13;99008.94;5075719;28;19928;-79
2023/03/27 12:10:45;;;;;;;;;;;;;;;18.26;23.62;99009.75;5085526;28;20396;-81
2023/03/27 12:13:18;;;;;;;;;;;;;;;18.28;22.49;99007.69;5101152;28;19924;-80
2023/03/27 12:15:50;;;;;;;;;;;;;;;18.24;21.57;99001.13;5083690;28;19982;-79
2023/03/27 12:18:29;;;;;;;;;;;;;;;18.25;22.69;98999.28;5089245;28;19923;-80
2023/03/27 12:21:14;;;;;;;;;;;;;;;18.37;21.47;98995.78;5083938;28;19919;-80
2023/03/27 12:23:43;;;;;;;;;;;;;;;18.52;21.16;98997.41;5084091;28;20392;-80
2023/03/27 12:26:49;;;;;;;;;;;;;;;18.55;20.58;99002.38;5068427;28;19923;-81
2023/03/27 12:29:58;;;;;;;;;;;;;;;18.74;19.46;98997.00;5093319;28;19930;-80
2023/03/27 12:32:43;;;;;;;;;;;;;;;18.90;20.51;98993.06;5087918;28;20314;-80
2023/03/27 12:35:08;;;;;;;;;;;;;;;19.04;19.82;99000.00;5105489;28;19924;-80
2023/03/27 12:37:42;;;;;;;;;;;;;;;19.17;20.00;99008.00;5086253;28;19927;-81
2023/03/27 12:40:26;;;;;;;;;;;;;;;19.16;18.95;99000.19;5084751;28;19928;-82
2023/03/27 12:42:54;;;;;;;;;;;;;;;19.27;19.34;98996.84;5088715;28;19965;-82
2023/03/27 12:45:23;;;;;;;;;;;;;;;19.37;19.17;99004.44;5080249;28;19959;-81
2023/03/27 12:48:09;;;;;;;;;;;;;;;19.31;19.50;98981.22;5104894;28;19928;-81
2023/03/27 12:50:43;;;;;;;;;;;;;;;19.13;18.19;99001.44;5085444;28;19919;-80
2023/03/27 12:53:38;;;;;;;;;;;;;;;19.20;18.10;99012.91;5088832;28;19920;-82
2023/03/27 12:56:16;;;;;;;;;;;;;;;19.29;18.47;99004.66;5079432;28;19919;-83
2023/03/27 12:58:44;;;;;;;;;;;;;;;19.44;19.28;99006.03;5091859;28;19919;-82
2023/03/27 13:01:30;;;;;;;;;;;;;;;19.68;19.09;99015.19;5111088;28;19947;-82
2023/03/27 13:04:11;;;;;;;;;;;;;;;19.63;18.04;98999.78;5104415;28;19999;-81
2023/03/27 13:06:42;;;;;;;;;;;;;;;19.76;18.35;99019.50;5092585;28;19983;-83
2023/03/27 13:09:22;;;;;;;;;;;;;;;19.69;17.93;99022.19;5093918;28;19920;-80
2023/03/27 13:11:57;;;;;;;;;;;;;;;19.66;17.88;99016.47;5075788;28;19920;-81
2023/03/27 13:14:23;;;;;;;;;;;;;;;19.80;17.99;99018.84;5085686;28;20380;-85
2023/03/27 13:16:55;;;;;;;;;;;;;;;19.75;16.70;99032.06;5084349;28;19995;-85
2023/03/27 13:19:32;;;;;;;;;;;;;;;19.71;16.24;99022.81;5086892;28;20320;-82